Time;durP1;ratioP1;P1;durP2;ratioP2;P2;SDS_P1;SDS_P2;PMS_P1;PMS_P2;Temp;Humidity;BMP_temperature;BMP_pressure;BME280_temperature;BME280_humidity;BME280_pressure;Samples;Min_cycle;Max_cycle;Signal;HPM_P1;HPM_P2
2023/05/23 00:03:48;;;;;;;9.90;5.50;;;;;;;15.95;56.96;98794.55;223754;181;137882;-66
2023/05/23 00:08:51;;;;;;;8.30;5.90;;;;;;;15.87;57.13;98793.27;223569;181;146787;-67
2023/05/23 00:13:56;;;;;;;14.00;5.90;;;;;;;15.80;57.23;98792.77;223772;181;138396;-66
2023/05/23 00:19:00;;;;;;;8.50;5.70;;;;;;;15.71;57.55;98784.15;223718;181;140090;-67
2023/05/23 00:24:03;;;;;;;10.20;5.50;;;;;;;15.60;57.66;98787.21;223811;181;147901;-65
2023/05/23 00:29:07;;;;;;;9.50;5.80;;;;;;;15.52;58.12;98788.23;223658;182;138402;-65
2023/05/23 00:34:19;;;;;;;12.00;5.60;;;;;;;15.43;58.38;98785.42;223712;181;137155;-65
2023/05/23 00:39:24;;;;;;;11.90;6.30;;;;;;;15.34;58.66;98783.73;223829;181;147013;-64
2023/05/23 00:44:27;;;;;;;7.80;5.70;;;;;;;15.25;58.75;98781.61;223713;181;138390;-65
2023/05/23 00:49:30;;;;;;;12.40;5.90;;;;;;;15.19;58.96;98777.83;223640;181;136297;-65
2023/05/23 00:54:35;;;;;;;12.80;6.10;;;;;;;15.15;59.50;98772.66;223602;181;147492;-66
2023/05/23 00:59:39;;;;;;;8.70;6.60;;;;;;;15.08;59.51;98768.80;223745;181;138904;-66
2023/05/23 01:04:43;;;;;;;9.60;6.10;;;;;;;15.01;59.52;98769.25;223679;181;137281;-66
2023/05/23 01:09:47;;;;;;;10.20;5.80;;;;;;;14.93;59.66;98766.15;223653;182;146954;-66
2023/05/23 01:15:09;;;;;;;9.50;5.90;;;;;;;14.85;59.76;98767.45;223721;181;138788;-66
2023/05/23 01:20:28;;;;;;;8.20;5.90;;;;;;;14.78;59.86;98766.29;223810;181;137726;-65
2023/05/23 01:25:46;;;;;;;14.00;6.30;;;;;;;14.72;60.06;98770.94;223622;181;147208;-67
2023/05/23 01:30:51;;;;;;;13.70;6.40;;;;;;;14.66;60.42;98761.45;223682;181;139281;-67
2023/05/23 01:35:57;;;;;;;;;;;;;;;14.61;60.41;98758.23;223831;181;136895;-67
2023/05/23 01:41:00;;;;;;;8.90;6.30;;;;;;;14.55;60.52;98755.90;223762;181;146938;-67
2023/05/23 01:46:06;;;;;;;8.60;6.20;;;;;;;14.52;60.80;98757.73;223728;181;138458;-67
2023/05/23 01:51:09;;;;;;;8.80;6.30;;;;;;;14.50;60.78;98757.77;223704;181;137416;-67
2023/05/23 01:56:13;;;;;;;8.50;6.10;;;;;;;14.44;61.06;98758.00;223703;181;147130;-70
2023/05/23 02:01:17;;;;;;;9.40;5.70;;;;;;;14.39;60.99;98755.73;223688;181;138221;-69
2023/05/23 02:06:20;;;;;;;11.30;6.90;;;;;;;14.32;61.19;98750.66;223641;181;136912;-70
2023/05/23 02:11:23;;;;;;;10.50;6.10;;;;;;;14.25;61.39;98750.19;223742;181;147104;-69
2023/05/23 02:16:27;;;;;;;10.60;6.60;;;;;;;14.18;61.58;98742.30;223752;181;139179;-69
2023/05/23 02:21:30;;;;;;;11.30;6.60;;;;;;;14.12;61.71;98737.46;223642;181;140726;-67
2023/05/23 02:26:38;;;;;;;12.70;7.10;;;;;;;14.06;61.77;98742.27;223693;181;147785;-67
2023/05/23 02:31:41;;;;;;;15.10;6.40;;;;;;;13.99;61.90;98739.77;223736;181;139562;-72
2023/05/23 02:36:44;;;;;;;13.80;6.90;;;;;;;13.93;62.09;98738.29;223715;181;138142;-69
2023/05/23 02:41:48;;;;;;;14.30;6.80;;;;;;;13.89;62.22;98737.52;223738;181;147542;-70
2023/05/23 02:46:51;;;;;;;12.50;6.30;;;;;;;13.85;62.27;98737.48;223726;181;139756;-68
2023/05/23 02:51:55;;;;;;;8.90;6.60;;;;;;;13.81;62.49;98738.16;223678;181;137108;-70
2023/05/23 02:56:58;;;;;;;11.40;7.00;;;;;;;13.79;62.57;98739.79;223730;181;147165;-69
2023/05/23 03:02:01;;;;;;;13.10;6.60;;;;;;;13.74;62.65;98737.82;223528;181;139800;-70
2023/05/23 03:07:05;;;;;;;12.70;7.40;;;;;;;13.69;62.82;98730.73;223708;181;137876;-69
2023/05/23 03:12:19;;;;;;;9.50;6.80;;;;;;;13.70;63.03;98724.42;223550;181;147614;-68
2023/05/23 03:17:24;;;;;;;10.20;6.10;;;;;;;13.76;62.88;98724.53;223683;181;139308;-67
2023/05/23 05:25:37;;;;;;;14.70;7.30;;;;;;;15.42;60.74;98697.74;221106;193;665488;-69
2023/05/23 05:30:41;;;;;;;55.50;42.20;;;;;;;15.50;60.93;98692.59;223596;184;136811;-67
2023/05/23 05:35:45;;;;;;;18.70;8.30;;;;;;;15.65;60.83;98691.95;223720;182;143490;-66
2023/05/23 05:40:48;;;;;;;13.00;7.10;;;;;;;15.74;60.56;98688.88;223753;182;139272;-66
2023/05/23 05:45:52;;;;;;;12.90;7.40;;;;;;;15.82;60.28;98689.91;223850;182;136453;-67
2023/05/23 05:50:56;;;;;;;11.80;7.30;;;;;;;15.92;60.22;98685.80;223701;182;143424;-67
2023/05/23 08:05:33;;;;;;;101.50;81.30;;;;;;;18.91;54.44;98617.96;221491;193;665660;-66
2023/05/23 08:10:38;;;;;;;24.30;17.20;;;;;;;19.01;54.18;98616.62;223323;187;136678;-64
2023/05/23 08:15:45;;;;;;;13.80;8.90;;;;;;;19.12;53.91;98620.29;223659;183;143543;-65
2023/05/23 08:20:51;;;;;;;12.40;6.90;;;;;;;19.18;53.79;98620.75;223524;183;138303;-65
2023/05/23 08:25:56;;;;;;;26.40;19.40;;;;;;;19.31;54.04;98619.35;223593;183;137345;-63
2023/05/23 08:30:59;;;;;;;;;;;;;;;19.61;53.11;98616.73;223487;183;144344;-63
2023/05/23 08:36:04;;;;;;;12.00;6.20;;;;;;;19.86;52.25;98621.35;223718;183;138458;-63
2023/05/23 08:41:17;;;;;;;9.80;5.90;;;;;;;19.99;52.06;98617.88;223668;183;136671;-63
2023/05/23 08:46:21;;;;;;;8.90;5.60;;;;;;;20.13;51.63;98617.66;223678;183;143463;-63
2023/05/23 08:51:26;;;;;;;23.60;17.00;;;;;;;20.25;51.30;98614.00;223610;183;138210;-63
2023/05/23 08:56:36;;;;;;;12.80;8.70;;;;;;;20.37;50.59;98613.13;223647;182;136704;-62
2023/05/23 09:01:44;;;;;;;7.30;5.00;;;;;;;20.47;50.30;98614.33;223483;183;145868;-64
2023/05/23 09:06:49;;;;;;;11.10;5.80;;;;;;;20.60;49.82;98610.30;223473;183;138092;-63
2023/05/23 09:11:54;;;;;;;13.00;6.50;;;;;;;20.68;49.47;98601.77;223631;183;136802;-64
2023/05/23 09:17:01;;;;;;;21.80;6.00;;;;;;;20.79;49.17;98599.47;223568;183;146501;-66
2023/05/23 09:22:07;;;;;;;15.50;6.30;;;;;;;20.90;48.94;98596.63;223302;183;138882;-63
2023/05/23 09:27:19;;;;;;;14.60;5.80;;;;;;;21.10;49.13;98600.11;223642;183;136647;-65
2023/05/23 09:32:23;;;;;;;7.90;5.50;;;;;;;21.28;48.65;98595.90;223576;182;145308;-65
2023/05/23 09:37:30;;;;;;;7.40;5.40;;;;;;;21.42;48.29;98596.33;223581;183;138922;-63
2023/05/23 09:42:33;;;;;;;11.10;4.70;;;;;;;21.57;47.93;98593.58;223675;183;137089;-65
2023/05/23 09:47:36;;;;;;;9.20;4.80;;;;;;;21.73;47.80;98590.83;223613;183;145541;-66
2023/05/23 09:52:39;;;;;;;12.10;4.10;;;;;;;21.94;47.17;98583.09;223687;182;138652;-63
2023/05/23 09:57:44;;;;;;;9.10;4.30;;;;;;;22.15;46.51;98580.77;223662;183;136807;-64
2023/05/23 10:03:13;;;;;;;10.40;5.10;;;;;;;22.27;46.42;98576.25;223679;183;145350;-64
2023/05/23 10:08:49;;;;;;;11.50;5.80;;;;;;;22.42;46.56;98570.20;223692;182;140006;-64
2023/05/23 10:13:53;;;;;;;6.50;3.80;;;;;;;22.65;46.06;98565.15;223747;183;139021;-63
2023/05/23 10:19:01;;;;;;;6.70;4.50;;;;;;;22.81;45.11;98560.65;223727;182;145700;-65
2023/05/23 10:24:06;;;;;;;7.10;4.40;;;;;;;22.96;45.23;98556.54;223624;181;139732;-66
2023/05/23 10:29:09;;;;;;;10.50;4.50;;;;;;;23.17;43.86;98550.35;223814;181;137651;-64
2023/05/23 10:34:18;;;;;;;10.10;3.80;;;;;;;23.43;42.79;98547.52;223775;181;145749;-63
2023/05/23 10:39:33;;;;;;;7.20;4.10;;;;;;;23.66;42.74;98545.22;223645;181;138897;-65
2023/05/23 10:44:36;;;;;;;23.40;15.60;;;;;;;23.87;42.94;98536.70;223744;181;137066;-66
2023/05/23 10:49:44;;;;;;;7.60;4.10;;;;;;;24.05;42.41;98530.91;223608;181;145473;-63
2023/05/23 10:54:53;;;;;;;7.20;4.20;;;;;;;24.17;42.04;98528.55;223629;181;138372;-64
2023/05/23 10:59:56;;;;;;;9.40;6.20;;;;;;;24.32;41.67;98527.27;223781;181;136800;-63
2023/05/23 11:05:21;;;;;;;14.50;6.10;;;;;;;24.46;39.89;98524.73;223746;181;146080;-66
2023/05/23 11:10:27;;;;;;;7.20;4.40;;;;;;;24.58;39.88;98515.92;223764;181;138123;-63
2023/05/23 11:15:41;;;;;;;13.90;5.10;;;;;;;24.80;40.56;98510.49;223675;181;142563;-63
2023/05/23 11:20:46;;;;;;;9.40;4.50;;;;;;;24.97;39.60;98504.45;223146;181;145287;-66
2023/05/23 11:25:51;;;;;;;;;;;;;;;25.17;39.88;98500.02;223622;181;138280;-65
2023/05/23 11:30:56;;;;;;;31.80;24.80;;;;;;;25.33;39.54;98494.70;223778;181;129117;-63
2023/05/23 11:35:59;;;;;;;;;;;;;;;25.23;38.96;98491.09;223728;181;145102;-64
2023/05/23 11:41:02;;;;;;;7.90;4.10;;;;;;;25.24;39.34;98487.66;223819;181;139241;-64
2023/05/23 11:46:08;;;;;;;6.60;3.60;;;;;;;25.44;38.74;98481.36;223778;181;137771;-64
2023/05/23 11:51:12;;;;;;;9.10;4.20;;;;;;;25.64;38.56;98470.16;223756;181;146314;-65
2023/05/23 11:56:15;;;;;;;5.10;3.60;;;;;;;25.68;37.54;98462.35;223699;181;138334;-63
2023/05/23 12:01:18;;;;;;;6.80;3.40;;;;;;;25.80;37.32;98462.73;223670;181;136968;-63
2023/05/23 12:06:23;;;;;;;9.20;3.90;;;;;;;26.09;37.57;98461.48;223663;181;145453;-64
2023/05/23 12:11:30;;;;;;;6.80;3.70;;;;;;;26.28;37.60;98460.77;223679;181;138661;-64
2023/05/23 12:16:35;;;;;;;4.50;3.60;;;;;;;26.35;37.37;98453.46;223787;181;136713;-64
2023/05/23 12:21:47;;;;;;;10.10;4.40;;;;;;;26.55;36.70;98449.61;223696;181;145636;-65
2023/05/23 12:26:57;;;;;;;34.30;30.50;;;;;;;26.54;36.14;98446.30;223755;181;139058;-64
2023/05/23 12:32:02;;;;;;;6.30;4.60;;;;;;;26.51;36.21;98445.25;223682;181;136867;-64
2023/05/23 12:37:06;;;;;;;10.90;4.20;;;;;;;26.51;36.52;98436.34;223655;181;145756;-65
2023/05/23 12:42:22;;;;;;;11.20;4.60;;;;;;;26.59;36.42;98431.25;223816;181;138180;-64
2023/05/23 12:47:25;;;;;;;8.60;3.70;;;;;;;26.72;36.01;98433.45;223806;181;138509;-65
2023/05/23 12:52:28;;;;;;;8.10;3.70;;;;;;;26.84;35.33;98440.81;223755;181;145334;-66
2023/05/23 12:57:34;;;;;;;16.10;8.90;;;;;;;26.98;34.94;98442.70;223572;181;138658;-65
2023/05/23 13:03:30;;;;;;;13.10;4.10;;;;;;;27.15;34.60;98439.01;221913;193;676524;-63
2023/05/23 13:08:33;;;;;;;10.50;4.70;;;;;;;27.08;34.40;98433.00;223533;184;136097;-65
2023/05/23 13:13:37;;;;;;;19.20;17.00;;;;;;;27.15;34.24;98418.71;223435;184;144063;-66
2023/05/23 13:18:41;;;;;;;6.10;3.60;;;;;;;27.13;34.38;98425.32;223565;183;138365;-63
2023/05/23 13:23:44;;;;;;;5.80;3.80;;;;;;;27.20;33.79;98424.79;223637;183;137072;-65
2023/05/23 13:28:47;;;;;;;5.80;3.70;;;;;;;27.21;33.96;98421.50;223649;183;143717;-65
2023/05/23 13:33:50;;;;;;;9.60;4.00;;;;;;;27.05;34.19;98423.00;223479;183;138441;-65
2023/05/23 13:38:53;;;;;;;11.10;4.00;;;;;;;26.84;34.09;98421.58;223612;183;136929;-65
2023/05/23 13:43:56;;;;;;;42.90;36.00;;;;;;;26.65;33.53;98427.30;223511;183;144363;-64
2023/05/23 13:49:00;;;;;;;8.80;4.70;;;;;;;26.52;33.84;98431.14;223537;184;139401;-65
2023/05/23 13:54:04;;;;;;;8.00;4.50;;;;;;;26.32;34.28;98437.77;223510;183;136969;-65
2023/05/23 13:59:08;;;;;;;5.60;3.40;;;;;;;26.23;34.37;98439.66;223488;184;146160;-65
2023/05/23 14:04:12;;;;;;;4.40;3.50;;;;;;;26.32;34.28;98436.21;223445;184;138349;-66
2023/05/23 14:09:15;;;;;;;11.20;3.50;;;;;;;26.23;33.95;98436.14;223625;183;136421;-64
2023/05/23 14:14:18;;;;;;;4.70;3.30;;;;;;;26.05;33.60;98440.16;223603;183;145321;-66
2023/05/23 14:19:22;;;;;;;89.40;75.40;;;;;;;25.83;34.71;98438.54;223606;183;139704;-66
2023/05/23 14:24:25;;;;;;;14.70;9.30;;;;;;;25.72;35.28;98440.19;223504;183;137444;-64
2023/05/23 14:33:28;;;;;;;6.70;4.20;;;;;;;26.00;36.26;98437.94;220617;191;676526;-65
2023/05/23 14:38:31;;;;;;;10.30;3.80;;;;;;;25.99;35.51;98434.17;223368;185;135565;-65
2023/05/23 14:43:34;;;;;;;8.30;3.70;;;;;;;25.94;35.45;98431.94;223758;181;143424;-64
2023/05/23 14:48:37;;;;;;;4.20;2.80;;;;;;;25.87;33.69;98424.00;223656;181;139344;-65
2023/05/23 14:53:41;;;;;;;12.30;4.80;;;;;;;25.77;34.54;98424.09;223561;182;136549;-64
2023/05/23 14:58:44;;;;;;;10.20;3.60;;;;;;;25.46;35.12;98425.57;223707;211;144908;-64
2023/05/23 15:03:48;;;;;;;5.30;3.40;;;;;;;25.21;35.79;98435.42;223658;182;139495;-64
2023/05/23 15:08:52;;;;;;;10.70;3.70;;;;;;;25.07;36.11;98440.50;223578;181;140027;-65
2023/05/23 15:13:55;;;;;;;139.60;106.60;;;;;;;24.96;34.42;98438.55;223641;181;144190;-67
2023/05/23 15:18:58;;;;;;;16.60;7.70;;;;;;;24.89;36.52;98447.02;223770;181;139642;-66
2023/05/23 15:24:02;;;;;;;19.70;5.30;;;;;;;24.79;39.24;98448.02;223744;181;137781;-64
2023/05/23 15:29:06;;;;;;;14.40;5.90;;;;;;;24.62;41.20;98443.93;223735;181;146505;-66
2023/05/23 15:34:10;;;;;;;16.60;5.50;;;;;;;24.45;42.09;98444.08;223701;182;138198;-64
2023/05/23 15:39:13;;;;;;;16.40;5.40;;;;;;;24.31;42.76;98444.27;223616;182;137455;-63
2023/05/23 15:44:19;;;;;;;17.20;5.20;;;;;;;24.22;43.35;98437.94;223691;182;145309;-63
2023/05/23 15:49:23;;;;;;;13.30;5.70;;;;;;;24.14;43.74;98436.98;223690;182;139069;-61
2023/05/23 15:54:29;;;;;;;16.40;6.40;;;;;;;24.00;43.98;98428.34;223623;182;139056;-66
2023/05/23 15:59:32;;;;;;;15.70;5.20;;;;;;;23.86;44.26;98426.12;223702;182;145569;-63
2023/05/23 16:04:36;;;;;;;11.60;5.50;;;;;;;23.72;44.77;98423.29;223674;182;139821;-65
2023/05/23 16:09:40;;;;;;;9.00;5.30;;;;;;;23.62;45.18;98421.66;223669;182;137132;-64
2023/05/23 16:14:43;;;;;;;9.80;5.20;;;;;;;23.54;45.58;98413.92;223646;182;145013;-64
2023/05/23 16:19:46;;;;;;;13.30;5.90;;;;;;;23.45;46.09;98421.09;223558;182;138882;-64
2023/05/23 16:24:49;;;;;;;15.30;5.40;;;;;;;23.33;46.46;98423.27;223652;182;136670;-64
2023/05/23 16:29:53;;;;;;;14.00;5.20;;;;;;;23.22;47.02;98425.56;223631;182;145304;-64
2023/05/23 16:34:56;;;;;;;13.00;5.20;;;;;;;23.14;47.36;98432.02;223605;182;138328;-64
2023/05/23 16:40:00;;;;;;;58.70;44.50;;;;;;;23.05;47.83;98440.44;223675;182;137062;-64
2023/05/23 16:45:04;;;;;;;16.30;7.10;;;;;;;22.98;47.92;98440.52;223691;183;147303;-64
2023/05/23 16:50:08;;;;;;;9.30;5.20;;;;;;;22.93;48.25;98437.14;223711;182;138261;-64
2023/05/23 16:55:11;;;;;;;81.90;67.50;;;;;;;22.85;48.11;98437.34;223682;182;136889;-64
2023/05/23 17:00:14;;;;;;;12.00;6.80;;;;;;;22.80;48.27;98442.50;223695;182;145095;-63
2023/05/23 17:05:17;;;;;;;13.10;6.30;;;;;;;22.72;49.29;98444.09;223721;181;139443;-66
2023/05/23 17:10:21;;;;;;;11.90;6.60;;;;;;;22.58;51.07;98449.37;222222;181;136914;-64
2023/05/23 17:15:25;;;;;;;12.90;6.60;;;;;;;22.46;52.05;98446.98;223620;182;145970;-65
2023/05/23 17:20:28;;;;;;;13.60;6.50;;;;;;;22.35;52.73;98453.91;223495;182;138402;-65
2023/05/23 17:25:31;;;;;;;14.40;7.20;;;;;;;22.23;53.54;98455.78;223659;182;137378;-65
2023/05/23 17:30:35;;;;;;;12.40;6.70;;;;;;;22.12;53.97;98460.12;223585;182;146138;-64
2023/05/23 17:35:38;;;;;;;13.60;7.40;;;;;;;22.02;54.32;98465.50;223547;182;138487;-64
2023/05/23 17:40:43;;;;;;;82.50;69.10;;;;;;;21.95;54.55;98467.00;223687;182;137591;-64
2023/05/23 17:45:46;;;;;;;15.60;11.40;;;;;;;21.92;54.88;98464.88;223597;181;145849;-65
2023/05/23 17:50:50;;;;;;;10.20;7.30;;;;;;;21.90;55.44;98469.36;223569;182;139440;-65
2023/05/23 17:55:53;;;;;;;10.40;8.30;;;;;;;21.80;55.57;98477.86;223610;182;137198;-63
2023/05/23 18:00:56;;;;;;;11.80;7.20;;;;;;;21.66;56.02;98480.73;223573;181;145401;-65
2023/05/23 18:05:59;;;;;;;11.00;6.20;;;;;;;21.55;56.04;98486.74;223585;182;158175;-65
2023/05/23 18:11:02;;;;;;;7.80;6.60;;;;;;;21.45;56.31;98490.41;223543;182;136401;-64
2023/05/23 18:16:05;;;;;;;11.10;6.50;;;;;;;21.37;56.70;98490.42;223551;183;147525;-65
2023/05/23 18:21:09;;;;;;;12.00;6.70;;;;;;;21.32;56.72;98493.15;223434;182;138233;-66
2023/05/23 18:26:12;;;;;;;8.50;5.70;;;;;;;21.29;56.65;98494.21;223594;181;136809;-66
2023/05/23 18:33:28;;;;;;;9.50;5.10;;;;;;;21.28;56.56;98506.24;221356;194;665816;-66
2023/05/23 18:38:31;;;;;;;8.10;6.30;;;;;;;21.24;56.82;98513.41;223592;183;136543;-64
2023/05/23 18:43:34;;;;;;;8.00;5.90;;;;;;;21.22;57.14;98519.52;223609;183;145065;-64
2023/05/23 18:48:37;;;;;;;10.60;6.80;;;;;;;21.20;57.21;98520.66;223648;182;139659;-64
2023/05/23 18:53:41;;;;;;;9.90;6.90;;;;;;;21.17;57.77;98527.49;223479;183;137365;-66
2023/05/23 18:58:45;;;;;;;8.10;6.20;;;;;;;21.15;58.33;98529.56;223705;183;144234;-65
2023/05/23 19:03:49;;;;;;;10.10;6.40;;;;;;;21.11;58.55;98534.11;223636;183;138571;-65
2023/05/23 19:08:52;;;;;;;8.60;6.20;;;;;;;21.10;58.38;98537.88;223495;183;137143;-65
2023/05/23 19:13:55;;;;;;;18.40;14.40;;;;;;;21.10;58.31;98543.09;223626;182;143555;-65
2023/05/23 19:18:58;;;;;;;22.30;17.00;;;;;;;21.14;58.42;98543.45;223584;183;138762;-65
2023/05/23 19:24:06;;;;;;;9.70;6.40;;;;;;;21.16;58.19;98540.14;223719;182;138042;-64
2023/05/23 19:29:12;;;;;;;8.60;6.80;;;;;;;21.15;58.29;98542.59;223582;183;146715;-64
2023/05/23 19:34:16;;;;;;;9.70;7.20;;;;;;;21.11;58.42;98546.77;223556;183;138205;-65
2023/05/23 19:39:20;;;;;;;12.20;7.30;;;;;;;21.06;58.71;98544.45;223429;183;136522;-65
2023/05/23 19:44:26;;;;;;;10.60;6.80;;;;;;;21.00;59.08;98545.96;223463;183;146725;-61
2023/05/23 19:49:29;;;;;;;15.00;7.00;;;;;;;20.93;59.30;98550.61;223373;183;139983;-63
2023/05/23 19:54:32;;;;;;;9.40;6.50;;;;;;;20.87;59.78;98562.48;223496;183;136782;-64
2023/05/23 19:59:36;;;;;;;10.60;6.40;;;;;;;20.79;59.68;98566.29;223526;181;145066;-64
2023/05/23 20:04:39;;;;;;;11.40;6.40;;;;;;;20.73;59.64;98568.60;223499;182;138403;-64
2023/05/23 20:09:43;;;;;;;12.10;6.80;;;;;;;20.69;59.67;98567.97;223630;181;137301;-64
2023/05/23 20:14:52;;;;;;;8.30;6.00;;;;;;;20.64;59.69;98569.60;223608;181;145721;-65
2023/05/23 20:20:07;;;;;;;8.90;6.60;;;;;;;20.56;59.70;98572.10;223603;182;138148;-65
2023/05/23 20:25:10;;;;;;;8.50;6.60;;;;;;;20.51;59.78;98569.36;223507;181;137708;-63
2023/05/23 20:30:14;;;;;;;11.50;6.50;;;;;;;20.49;60.20;98572.83;223560;181;145906;-64
2023/05/23 20:35:21;;;;;;;7.40;6.30;;;;;;;20.47;60.45;98573.56;223549;181;138982;-65
2023/05/23 20:40:26;;;;;;;8.60;6.00;;;;;;;20.53;60.40;98581.23;223632;182;137237;-65
2023/05/23 20:45:31;;;;;;;11.40;6.40;;;;;;;20.56;60.15;98586.16;223580;181;145208;-68
2023/05/23 20:50:35;;;;;;;11.90;7.00;;;;;;;20.56;60.23;98589.17;223645;181;138220;-65
2023/05/23 20:55:38;;;;;;;9.60;6.90;;;;;;;20.54;60.64;98595.19;223521;181;137013;-65
2023/05/23 21:00:42;;;;;;;12.20;7.90;;;;;;;20.54;60.74;98595.13;223609;181;145321;-65
2023/05/23 21:05:46;;;;;;;13.30;8.10;;;;;;;20.50;61.19;98597.27;223543;181;139108;-64
2023/05/23 21:10:49;;;;;;;18.90;7.40;;;;;;;20.43;61.49;98605.56;223606;181;137701;-64
2023/05/23 21:15:56;;;;;;;15.50;8.70;;;;;;;20.36;62.00;98606.75;223539;181;145785;-65
2023/05/23 21:20:59;;;;;;;9.70;8.00;;;;;;;20.31;62.33;98608.50;223554;181;139665;-65
2023/05/23 21:26:03;;;;;;;14.00;8.70;;;;;;;20.26;63.15;98612.27;223624;182;139530;-62
2023/05/23 21:31:07;;;;;;;13.50;8.10;;;;;;;20.21;63.46;98613.59;223493;181;150692;-63
2023/05/23 21:36:10;;;;;;;13.60;8.10;;;;;;;20.21;63.86;98620.38;223560;181;138144;-64
2023/05/23 21:41:24;;;;;;;15.00;9.30;;;;;;;20.26;64.41;98622.45;223646;181;136831;-65
2023/05/23 21:46:27;;;;;;;17.20;9.90;;;;;;;20.29;64.79;98614.06;223651;181;145369;-64
2023/05/23 21:51:31;;;;;;;15.50;10.70;;;;;;;20.27;64.88;98617.08;223638;181;140496;-65
2023/05/23 21:56:34;;;;;;;16.50;10.70;;;;;;;20.22;65.13;98617.42;223644;181;137982;-64
2023/05/23 22:01:37;;;;;;;14.20;11.20;;;;;;;20.17;65.47;98615.41;223669;181;145749;-64
2023/05/23 22:06:40;;;;;;;14.20;11.00;;;;;;;20.17;65.66;98618.92;223674;181;138969;-64
2023/05/23 22:11:44;;;;;;;16.50;12.40;;;;;;;20.14;65.89;98620.77;223717;181;138389;-64
2023/05/23 22:16:48;;;;;;;18.70;11.20;;;;;;;20.10;66.15;98621.77;223795;181;145653;-63
2023/05/23 22:21:52;;;;;;;17.80;11.60;;;;;;;20.11;66.41;98625.33;223676;181;139659;-65
2023/05/23 22:26:55;;;;;;;18.10;12.00;;;;;;;20.13;66.56;98625.02;223718;181;138340;-63
2023/05/23 22:31:58;;;;;;;22.10;12.80;;;;;;;20.16;66.65;98622.27;223603;181;145523;-63
